aviador You're here:

KEPH Decoded Metar

EPHRATA in WA, USA
Report Time2018-04-23 22:53:00
UTC Time2018-04-23 23:10:45
Flight Rules vfr VFR
Wind320° at 03 kt
W.Decomp.*RWY 29: 2.9 kt HW 0.7 kt RCW
RWY 22: 0.3 kt HW 3.0 kt RCW
RWY 03: 0.2 kt HW 3 kt LCW
W.Rank320° ranks 8
Current wind is below 320° avg. (8.7)
Visibility9999 m
Phenomena:N/A
Clouds:N/A
Expected CloudBase > 9,600 ft AGL from Temp-Dew spread
CeilingNone
Temp19°C (ISA +6)
Dew Point-5°C (19% RH)
AAT15.3°C
QNH1027 hPa
Density Alt1,611 ft
Elevation1,257 ft
Report Wrong Elevation
Raw Report
KEPH 232253Z AUTO 32003KT 10SM CLR 19/M05 A3033 RMK AO2 SLP271
T01891050=

Extra information for KEPH:More info

Metar Taf Metar & Taf Last 4 Metars F.Rules Stats Wind Profile Meteogram Temp Stats Airport Information Weather charts Add Link Nearby VenuesMetar ALERT Operation Metar Decoded Social comments

AIRNAV info for KEPH